sensor_id;sensor_type;location;lat;lon;timestamp;P1;durP1;ratioP1;P2;durP2;ratioP2
80183;SDS011;69682;52.138;5.440;2024-03-07T00:00:22;25.15;;;11.77;;
80183;SDS011;69682;52.138;5.440;2024-03-07T00:02:49;20.63;;;10.52;;
80183;SDS011;69682;52.138;5.440;2024-03-07T00:07:45;25.85;;;11.35;;
80183;SDS011;69682;52.138;5.440;2024-03-07T00:10:13;22.48;;;11.38;;
80183;SDS011;69682;52.138;5.440;2024-03-07T00:12:42;25.67;;;12.75;;
80183;SDS011;69682;52.138;5.440;2024-03-07T00:15:10;22.15;;;10.88;;
80183;SDS011;69682;52.138;5.440;2024-03-07T00:17:39;26.23;;;12.07;;
80183;SDS011;69682;52.138;5.440;2024-03-07T00:20:07;23.98;;;11.10;;
80183;SDS011;69682;52.138;5.440;2024-03-07T00:22:36;22.63;;;11.77;;
80183;SDS011;69682;52.138;5.440;2024-03-07T00:25:03;27.65;;;14.07;;
80183;SDS011;69682;52.138;5.440;2024-03-07T00:27:33;22.00;;;11.35;;
80183;SDS011;69682;52.138;5.440;2024-03-07T00:29:59;21.40;;;10.93;;
80183;SDS011;69682;52.138;5.440;2024-03-07T00:32:26;26.00;;;12.90;;
80183;SDS011;69682;52.138;5.440;2024-03-07T00:34:56;24.60;;;11.77;;
80183;SDS011;69682;52.138;5.440;2024-03-07T00:37:25;26.83;;;13.20;;
80183;SDS011;69682;52.138;5.440;2024-03-07T00:39:52;25.02;;;14.65;;
80183;SDS011;69682;52.138;5.440;2024-03-07T00:42:19;26.33;;;13.55;;
80183;SDS011;69682;52.138;5.440;2024-03-07T00:44:45;25.40;;;12.43;;
80183;SDS011;69682;52.138;5.440;2024-03-07T00:47:13;23.88;;;12.23;;
80183;SDS011;69682;52.138;5.440;2024-03-07T00:49:39;25.95;;;13.32;;
80183;SDS011;69682;52.138;5.440;2024-03-07T00:52:06;23.58;;;12.07;;
80183;SDS011;69682;52.138;5.440;2024-03-07T00:54:32;22.65;;;12.57;;
80183;SDS011;69682;52.138;5.440;2024-03-07T00:56:59;20.95;;;11.07;;
80183;SDS011;69682;52.138;5.440;2024-03-07T00:59:26;22.17;;;11.50;;
80183;SDS011;69682;52.138;5.440;2024-03-07T01:01:52;24.85;;;12.50;;
80183;SDS011;69682;52.138;5.440;2024-03-07T01:04:19;27.25;;;13.38;;
80183;SDS011;69682;52.138;5.440;2024-03-07T01:06:46;24.00;;;11.75;;
80183;SDS011;69682;52.138;5.440;2024-03-07T01:09:13;20.33;;;11.15;;
80183;SDS011;69682;52.138;5.440;2024-03-07T01:11:42;23.20;;;11.52;;
80183;SDS011;69682;52.138;5.440;2024-03-07T01:14:10;25.55;;;11.20;;
80183;SDS011;69682;52.138;5.440;2024-03-07T01:16:38;27.73;;;14.13;;
80183;SDS011;69682;52.138;5.440;2024-03-07T01:19:04;26.23;;;13.40;;
80183;SDS011;69682;52.138;5.440;2024-03-07T01:21:33;29.67;;;14.15;;
80183;SDS011;69682;52.138;5.440;2024-03-07T01:24:03;30.42;;;12.90;;
80183;SDS011;69682;52.138;5.440;2024-03-07T01:26:31;23.83;;;12.10;;
80183;SDS011;69682;52.138;5.440;2024-03-07T01:29:00;25.73;;;11.60;;
80183;SDS011;69682;52.138;5.440;2024-03-07T01:31:26;25.15;;;12.57;;
80183;SDS011;69682;52.138;5.440;2024-03-07T01:33:54;24.15;;;12.68;;
80183;SDS011;69682;52.138;5.440;2024-03-07T01:36:22;30.05;;;14.38;;
80183;SDS011;69682;52.138;5.440;2024-03-07T01:38:49;28.38;;;12.48;;
80183;SDS011;69682;52.138;5.440;2024-03-07T01:41:15;30.35;;;14.48;;
80183;SDS011;69682;52.138;5.440;2024-03-07T01:43:42;37.35;;;13.65;;
80183;SDS011;69682;52.138;5.440;2024-03-07T01:46:09;24.85;;;14.27;;
80183;SDS011;69682;52.138;5.440;2024-03-07T01:48:37;26.15;;;12.75;;
80183;SDS011;69682;52.138;5.440;2024-03-07T01:51:04;31.20;;;14.88;;
80183;SDS011;69682;52.138;5.440;2024-03-07T01:53:31;26.90;;;14.25;;
80183;SDS011;69682;52.138;5.440;2024-03-07T01:56:02;27.80;;;12.55;;
80183;SDS011;69682;52.138;5.440;2024-03-07T01:58:30;30.40;;;14.00;;
80183;SDS011;69682;52.138;5.440;2024-03-07T02:01:00;23.73;;;11.43;;
80183;SDS011;69682;52.138;5.440;2024-03-07T02:03:27;22.98;;;12.52;;
80183;SDS011;69682;52.138;5.440;2024-03-07T02:05:54;29.75;;;11.95;;
80183;SDS011;69682;52.138;5.440;2024-03-07T02:08:21;30.17;;;14.38;;
80183;SDS011;69682;52.138;5.440;2024-03-07T02:10:48;25.38;;;13.73;;
80183;SDS011;69682;52.138;5.440;2024-03-07T02:13:15;30.38;;;13.77;;
80183;SDS011;69682;52.138;5.440;2024-03-07T02:15:42;25.38;;;11.85;;
80183;SDS011;69682;52.138;5.440;2024-03-07T02:18:09;27.25;;;12.70;;
80183;SDS011;69682;52.138;5.440;2024-03-07T02:20:37;29.98;;;13.85;;
80183;SDS011;69682;52.138;5.440;2024-03-07T02:23:13;29.50;;;14.20;;
80183;SDS011;69682;52.138;5.440;2024-03-07T02:25:41;31.17;;;15.07;;
80183;SDS011;69682;52.138;5.440;2024-03-07T02:28:07;34.03;;;14.63;;
80183;SDS011;69682;52.138;5.440;2024-03-07T02:30:34;29.38;;;13.07;;
80183;SDS011;69682;52.138;5.440;2024-03-07T02:33:01;29.08;;;14.38;;
80183;SDS011;69682;52.138;5.440;2024-03-07T02:35:34;28.23;;;14.43;;
80183;SDS011;69682;52.138;5.440;2024-03-07T02:38:04;28.92;;;14.27;;
80183;SDS011;69682;52.138;5.440;2024-03-07T02:40:35;28.42;;;14.55;;
80183;SDS011;69682;52.138;5.440;2024-03-07T02:43:02;32.50;;;14.98;;
80183;SDS011;69682;52.138;5.440;2024-03-07T02:45:31;33.17;;;15.70;;
80183;SDS011;69682;52.138;5.440;2024-03-07T02:47:57;32.67;;;14.00;;
80183;SDS011;69682;52.138;5.440;2024-03-07T02:50:24;29.10;;;13.07;;
80183;SDS011;69682;52.138;5.440;2024-03-07T02:52:51;28.35;;;12.85;;
80183;SDS011;69682;52.138;5.440;2024-03-07T02:55:19;24.85;;;13.38;;
80183;SDS011;69682;52.138;5.440;2024-03-07T02:57:46;28.83;;;13.45;;
80183;SDS011;69682;52.138;5.440;2024-03-07T03:00:13;32.80;;;15.73;;
80183;SDS011;69682;52.138;5.440;2024-03-07T03:02:46;29.33;;;15.00;;
80183;SDS011;69682;52.138;5.440;2024-03-07T03:05:14;31.13;;;14.68;;
80183;SDS011;69682;52.138;5.440;2024-03-07T03:07:42;31.35;;;13.05;;
80183;SDS011;69682;52.138;5.440;2024-03-07T03:10:08;32.58;;;13.20;;
80183;SDS011;69682;52.138;5.440;2024-03-07T03:12:37;31.27;;;13.05;;
80183;SDS011;69682;52.138;5.440;2024-03-07T03:15:04;28.20;;;12.65;;
80183;SDS011;69682;52.138;5.440;2024-03-07T03:17:33;28.63;;;14.35;;
80183;SDS011;69682;52.138;5.440;2024-03-07T03:20:00;33.00;;;14.73;;
80183;SDS011;69682;52.138;5.440;2024-03-07T03:22:27;27.85;;;14.30;;
80183;SDS011;69682;52.138;5.440;2024-03-07T03:24:53;32.22;;;13.50;;
80183;SDS011;69682;52.138;5.440;2024-03-07T03:27:21;34.33;;;15.23;;
80183;SDS011;69682;52.138;5.440;2024-03-07T03:29:48;29.85;;;13.23;;
80183;SDS011;69682;52.138;5.440;2024-03-07T03:32:17;31.05;;;13.82;;
80183;SDS011;69682;52.138;5.440;2024-03-07T03:34:46;30.23;;;13.73;;
80183;SDS011;69682;52.138;5.440;2024-03-07T03:37:13;27.15;;;13.50;;
80183;SDS011;69682;52.138;5.440;2024-03-07T03:39:40;24.73;;;13.00;;
80183;SDS011;69682;52.138;5.440;2024-03-07T03:42:13;30.63;;;13.48;;
80183;SDS011;69682;52.138;5.440;2024-03-07T03:44:39;28.73;;;13.45;;
80183;SDS011;69682;52.138;5.440;2024-03-07T03:47:06;27.17;;;13.55;;
80183;SDS011;69682;52.138;5.440;2024-03-07T03:49:33;31.65;;;15.77;;
80183;SDS011;69682;52.138;5.440;2024-03-07T03:51:59;29.13;;;14.10;;
80183;SDS011;69682;52.138;5.440;2024-03-07T03:54:26;28.80;;;13.32;;
80183;SDS011;69682;52.138;5.440;2024-03-07T03:56:52;27.63;;;12.73;;
80183;SDS011;69682;52.138;5.440;2024-03-07T03:59:19;29.23;;;14.18;;
80183;SDS011;69682;52.138;5.440;2024-03-07T04:01:45;27.80;;;12.40;;
80183;SDS011;69682;52.138;5.440;2024-03-07T04:04:17;28.80;;;14.10;;
80183;SDS011;69682;52.138;5.440;2024-03-07T04:06:44;28.25;;;13.90;;
80183;SDS011;69682;52.138;5.440;2024-03-07T04:09:11;28.08;;;13.18;;
80183;SDS011;69682;52.138;5.440;2024-03-07T04:11:37;25.25;;;12.90;;
80183;SDS011;69682;52.138;5.440;2024-03-07T04:14:04;25.48;;;13.27;;
80183;SDS011;69682;52.138;5.440;2024-03-07T04:16:31;24.83;;;11.88;;
80183;SDS011;69682;52.138;5.440;2024-03-07T04:18:57;27.15;;;11.77;;
80183;SDS011;69682;52.138;5.440;2024-03-07T04:21:27;25.48;;;13.40;;
80183;SDS011;69682;52.138;5.440;2024-03-07T04:23:53;28.13;;;15.10;;
80183;SDS011;69682;52.138;5.440;2024-03-07T04:26:20;27.05;;;13.20;;
80183;SDS011;69682;52.138;5.440;2024-03-07T04:28:47;23.10;;;12.00;;
80183;SDS011;69682;52.138;5.440;2024-03-07T04:31:14;22.67;;;12.20;;
80183;SDS011;69682;52.138;5.440;2024-03-07T04:33:41;25.30;;;11.77;;
80183;SDS011;69682;52.138;5.440;2024-03-07T04:36:10;24.60;;;12.13;;
80183;SDS011;69682;52.138;5.440;2024-03-07T04:38:41;23.75;;;11.57;;
80183;SDS011;69682;52.138;5.440;2024-03-07T04:41:11;28.92;;;12.52;;
80183;SDS011;69682;52.138;5.440;2024-03-07T04:43:38;21.38;;;12.32;;
80183;SDS011;69682;52.138;5.440;2024-03-07T04:46:05;23.58;;;11.35;;
80183;SDS011;69682;52.138;5.440;2024-03-07T04:48:33;23.90;;;12.63;;
80183;SDS011;69682;52.138;5.440;2024-03-07T04:51:00;24.27;;;12.48;;
80183;SDS011;69682;52.138;5.440;2024-03-07T04:53:27;23.67;;;11.88;;
80183;SDS011;69682;52.138;5.440;2024-03-07T04:55:53;23.95;;;12.20;;
80183;SDS011;69682;52.138;5.440;2024-03-07T04:58:20;24.50;;;13.07;;
80183;SDS011;69682;52.138;5.440;2024-03-07T05:00:46;22.52;;;11.65;;
80183;SDS011;69682;52.138;5.440;2024-03-07T05:03:13;30.88;;;12.55;;
80183;SDS011;69682;52.138;5.440;2024-03-07T05:05:39;23.63;;;12.77;;
80183;SDS011;69682;52.138;5.440;2024-03-07T05:08:07;25.13;;;13.88;;
80183;SDS011;69682;52.138;5.440;2024-03-07T05:10:34;23.17;;;11.70;;
80183;SDS011;69682;52.138;5.440;2024-03-07T05:13:02;27.70;;;12.60;;
80183;SDS011;69682;52.138;5.440;2024-03-07T05:15:29;24.58;;;12.25;;
80183;SDS011;69682;52.138;5.440;2024-03-07T05:17:56;24.85;;;12.65;;
80183;SDS011;69682;52.138;5.440;2024-03-07T05:20:25;22.77;;;12.95;;
80183;SDS011;69682;52.138;5.440;2024-03-07T05:22:55;30.63;;;14.93;;
80183;SDS011;69682;52.138;5.440;2024-03-07T05:25:21;30.65;;;16.15;;
80183;SDS011;69682;52.138;5.440;2024-03-07T05:27:48;22.52;;;11.85;;
80183;SDS011;69682;52.138;5.440;2024-03-07T05:30:17;23.08;;;13.25;;
80183;SDS011;69682;52.138;5.440;2024-03-07T05:32:44;27.83;;;15.10;;
80183;SDS011;69682;52.138;5.440;2024-03-07T05:35:10;30.40;;;15.63;;
80183;SDS011;69682;52.138;5.440;2024-03-07T05:37:42;25.60;;;12.55;;
80183;SDS011;69682;52.138;5.440;2024-03-07T05:40:13;28.77;;;14.32;;
80183;SDS011;69682;52.138;5.440;2024-03-07T05:42:40;26.73;;;14.32;;
80183;SDS011;69682;52.138;5.440;2024-03-07T05:45:08;24.40;;;13.15;;
80183;SDS011;69682;52.138;5.440;2024-03-07T05:47:34;28.90;;;15.45;;
80183;SDS011;69682;52.138;5.440;2024-03-07T05:50:01;28.17;;;15.30;;
80183;SDS011;69682;52.138;5.440;2024-03-07T05:52:28;27.23;;;16.13;;
80183;SDS011;69682;52.138;5.440;2024-03-07T05:54:54;26.70;;;14.35;;
80183;SDS011;69682;52.138;5.440;2024-03-07T05:57:21;27.58;;;12.02;;
80183;SDS011;69682;52.138;5.440;2024-03-07T05:59:47;30.48;;;13.93;;
80183;SDS011;69682;52.138;5.440;2024-03-07T06:02:17;30.38;;;14.38;;
80183;SDS011;69682;52.138;5.440;2024-03-07T06:04:43;31.42;;;16.05;;
80183;SDS011;69682;52.138;5.440;2024-03-07T06:07:10;35.65;;;16.25;;
80183;SDS011;69682;52.138;5.440;2024-03-07T06:09:37;32.08;;;15.38;;
80183;SDS011;69682;52.138;5.440;2024-03-07T06:12:04;34.00;;;14.93;;
80183;SDS011;69682;52.138;5.440;2024-03-07T06:14:48;27.90;;;14.32;;
80183;SDS011;69682;52.138;5.440;2024-03-07T06:17:16;26.45;;;13.48;;
80183;SDS011;69682;52.138;5.440;2024-03-07T06:19:45;24.38;;;13.00;;
80183;SDS011;69682;52.138;5.440;2024-03-07T06:22:12;28.48;;;15.13;;
80183;SDS011;69682;52.138;5.440;2024-03-07T06:24:41;26.80;;;14.55;;
80183;SDS011;69682;52.138;5.440;2024-03-07T06:27:10;27.85;;;15.15;;
80183;SDS011;69682;52.138;5.440;2024-03-07T06:30:00;25.67;;;13.75;;
80183;SDS011;69682;52.138;5.440;2024-03-07T06:32:30;28.63;;;13.23;;
80183;SDS011;69682;52.138;5.440;2024-03-07T06:34:57;25.55;;;12.10;;
80183;SDS011;69682;52.138;5.440;2024-03-07T06:37:24;29.58;;;15.40;;
80183;SDS011;69682;52.138;5.440;2024-03-07T06:39:51;25.15;;;11.73;;
80183;SDS011;69682;52.138;5.440;2024-03-07T06:42:18;28.67;;;15.38;;
80183;SDS011;69682;52.138;5.440;2024-03-07T06:44:45;26.63;;;13.95;;
80183;SDS011;69682;52.138;5.440;2024-03-07T06:47:18;36.20;;;17.27;;
80183;SDS011;69682;52.138;5.440;2024-03-07T06:49:45;29.90;;;15.38;;
80183;SDS011;69682;52.138;5.440;2024-03-07T06:52:12;34.45;;;16.75;;
80183;SDS011;69682;52.138;5.440;2024-03-07T06:54:38;30.35;;;14.93;;
80183;SDS011;69682;52.138;5.440;2024-03-07T06:57:05;27.40;;;13.90;;
80183;SDS011;69682;52.138;5.440;2024-03-07T06:59:32;29.73;;;14.90;;
80183;SDS011;69682;52.138;5.440;2024-03-07T07:01:59;28.17;;;12.88;;
80183;SDS011;69682;52.138;5.440;2024-03-07T07:04:25;30.80;;;15.57;;
80183;SDS011;69682;52.138;5.440;2024-03-07T07:06:58;30.25;;;15.68;;
80183;SDS011;69682;52.138;5.440;2024-03-07T07:09:25;29.80;;;15.25;;
80183;SDS011;69682;52.138;5.440;2024-03-07T07:11:52;26.23;;;13.30;;
80183;SDS011;69682;52.138;5.440;2024-03-07T07:14:19;24.92;;;13.63;;
80183;SDS011;69682;52.138;5.440;2024-03-07T07:16:47;28.30;;;16.45;;
80183;SDS011;69682;52.138;5.440;2024-03-07T07:19:13;30.77;;;15.07;;
80183;SDS011;69682;52.138;5.440;2024-03-07T07:21:40;29.55;;;16.98;;
80183;SDS011;69682;52.138;5.440;2024-03-07T07:24:10;31.10;;;16.40;;
80183;SDS011;69682;52.138;5.440;2024-03-07T07:26:37;32.38;;;15.75;;
80183;SDS011;69682;52.138;5.440;2024-03-07T07:29:07;26.20;;;13.35;;
80183;SDS011;69682;52.138;5.440;2024-03-07T07:31:34;26.25;;;14.93;;
80183;SDS011;69682;52.138;5.440;2024-03-07T07:34:01;25.20;;;14.05;;
80183;SDS011;69682;52.138;5.440;2024-03-07T07:36:32;27.70;;;14.40;;
80183;SDS011;69682;52.138;5.440;2024-03-07T07:38:59;28.00;;;13.77;;
80183;SDS011;69682;52.138;5.440;2024-03-07T07:41:26;28.25;;;13.80;;
80183;SDS011;69682;52.138;5.440;2024-03-07T07:43:54;25.35;;;12.50;;
80183;SDS011;69682;52.138;5.440;2024-03-07T07:46:20;24.77;;;13.23;;
80183;SDS011;69682;52.138;5.440;2024-03-07T07:48:47;26.05;;;13.90;;
80183;SDS011;69682;52.138;5.440;2024-03-07T07:51:13;25.27;;;15.05;;
80183;SDS011;69682;52.138;5.440;2024-03-07T07:53:40;26.33;;;13.98;;
80183;SDS011;69682;52.138;5.440;2024-03-07T07:56:07;25.17;;;12.90;;
80183;SDS011;69682;52.138;5.440;2024-03-07T07:58:34;25.35;;;14.07;;
80183;SDS011;69682;52.138;5.440;2024-03-07T08:01:01;31.15;;;14.70;;
80183;SDS011;69682;52.138;5.440;2024-03-07T08:03:27;28.27;;;14.65;;
80183;SDS011;69682;52.138;5.440;2024-03-07T08:05:54;29.25;;;15.98;;
80183;SDS011;69682;52.138;5.440;2024-03-07T08:08:21;29.05;;;13.93;;
80183;SDS011;69682;52.138;5.440;2024-03-07T08:10:48;23.30;;;14.52;;
80183;SDS011;69682;52.138;5.440;2024-03-07T08:13:15;23.30;;;13.15;;
80183;SDS011;69682;52.138;5.440;2024-03-07T08:15:42;23.75;;;13.80;;
80183;SDS011;69682;52.138;5.440;2024-03-07T08:18:09;25.77;;;13.95;;
80183;SDS011;69682;52.138;5.440;2024-03-07T08:20:37;21.90;;;11.52;;
80183;SDS011;69682;52.138;5.440;2024-03-07T08:25:33;23.45;;;10.80;;
80183;SDS011;69682;52.138;5.440;2024-03-07T08:27:59;18.33;;;9.77;;
80183;SDS011;69682;52.138;5.440;2024-03-07T08:30:27;22.67;;;13.15;;
80183;SDS011;69682;52.138;5.440;2024-03-07T08:32:56;23.88;;;13.00;;
80183;SDS011;69682;52.138;5.440;2024-03-07T08:35:23;26.52;;;13.93;;
80183;SDS011;69682;52.138;5.440;2024-03-07T08:37:52;24.35;;;13.50;;
80183;SDS011;69682;52.138;5.440;2024-03-07T08:40:22;18.52;;;9.57;;
80183;SDS011;69682;52.138;5.440;2024-03-07T08:42:54;20.27;;;9.88;;
80183;SDS011;69682;52.138;5.440;2024-03-07T08:45:22;21.42;;;11.52;;
80183;SDS011;69682;52.138;5.440;2024-03-07T08:47:50;19.55;;;11.88;;
80183;SDS011;69682;52.138;5.440;2024-03-07T08:50:19;25.70;;;11.10;;
80183;SDS011;69682;52.138;5.440;2024-03-07T08:52:46;16.85;;;10.43;;
80183;SDS011;69682;52.138;5.440;2024-03-07T08:57:42;21.38;;;10.90;;
80183;SDS011;69682;52.138;5.440;2024-03-07T09:03:00;16.70;;;9.88;;
80183;SDS011;69682;52.138;5.440;2024-03-07T09:05:30;21.08;;;10.88;;
80183;SDS011;69682;52.138;5.440;2024-03-07T09:08:00;23.13;;;10.88;;
80183;SDS011;69682;52.138;5.440;2024-03-07T09:10:28;14.15;;;8.85;;
80183;SDS011;69682;52.138;5.440;2024-03-07T09:12:57;15.90;;;7.85;;
80183;SDS011;69682;52.138;5.440;2024-03-07T09:15:25;22.77;;;9.98;;
80183;SDS011;69682;52.138;5.440;2024-03-07T09:17:52;11.80;;;8.13;;
80183;SDS011;69682;52.138;5.440;2024-03-07T09:20:20;15.48;;;9.07;;
80183;SDS011;69682;52.138;5.440;2024-03-07T09:22:47;16.15;;;8.57;;
80183;SDS011;69682;52.138;5.440;2024-03-07T09:25:17;14.27;;;9.02;;
80183;SDS011;69682;52.138;5.440;2024-03-07T09:27:45;18.83;;;10.35;;
80183;SDS011;69682;52.138;5.440;2024-03-07T09:30:13;18.40;;;9.48;;
80183;SDS011;69682;52.138;5.440;2024-03-07T09:32:45;14.88;;;8.43;;
80183;SDS011;69682;52.138;5.440;2024-03-07T09:35:12;15.38;;;8.70;;
80183;SDS011;69682;52.138;5.440;2024-03-07T09:37:43;15.32;;;8.63;;
80183;SDS011;69682;52.138;5.440;2024-03-07T09:40:10;18.50;;;9.82;;
80183;SDS011;69682;52.138;5.440;2024-03-07T09:42:42;15.05;;;8.00;;
80183;SDS011;69682;52.138;5.440;2024-03-07T09:45:16;14.50;;;8.95;;
80183;SDS011;69682;52.138;5.440;2024-03-07T09:47:45;13.52;;;7.35;;
80183;SDS011;69682;52.138;5.440;2024-03-07T09:50:15;15.90;;;8.13;;
80183;SDS011;69682;52.138;5.440;2024-03-07T09:52:46;16.23;;;9.13;;
80183;SDS011;69682;52.138;5.440;2024-03-07T09:55:16;20.60;;;9.88;;
80183;SDS011;69682;52.138;5.440;2024-03-07T09:57:45;17.48;;;9.93;;
80183;SDS011;69682;52.138;5.440;2024-03-07T10:02:59;14.45;;;6.93;;
80183;SDS011;69682;52.138;5.440;2024-03-07T10:05:31;10.82;;;7.18;;
80183;SDS011;69682;52.138;5.440;2024-03-07T10:07:59;16.75;;;8.15;;
80183;SDS011;69682;52.138;5.440;2024-03-07T10:10:27;17.88;;;8.65;;
80183;SDS011;69682;52.138;5.440;2024-03-07T10:12:54;18.55;;;8.52;;
80183;SDS011;69682;52.138;5.440;2024-03-07T10:15:20;11.18;;;7.43;;
80183;SDS011;69682;52.138;5.440;2024-03-07T10:17:49;17.02;;;8.00;;
80183;SDS011;69682;52.138;5.440;2024-03-07T10:20:18;19.75;;;9.35;;
80183;SDS011;69682;52.138;5.440;2024-03-07T10:22:49;16.40;;;8.32;;
80183;SDS011;69682;52.138;5.440;2024-03-07T10:25:17;18.05;;;7.75;;
80183;SDS011;69682;52.138;5.440;2024-03-07T10:27:47;17.60;;;9.13;;
80183;SDS011;69682;52.138;5.440;2024-03-07T10:30:16;18.30;;;8.73;;
80183;SDS011;69682;52.138;5.440;2024-03-07T10:32:54;15.27;;;7.13;;
80183;SDS011;69682;52.138;5.440;2024-03-07T10:35:25;15.60;;;7.82;;
80183;SDS011;69682;52.138;5.440;2024-03-07T10:37:52;19.27;;;8.02;;
80183;SDS011;69682;52.138;5.440;2024-03-07T10:40:20;17.50;;;7.57;;
80183;SDS011;69682;52.138;5.440;2024-03-07T10:42:49;18.08;;;8.88;;
80183;SDS011;69682;52.138;5.440;2024-03-07T10:45:19;15.40;;;7.93;;
80183;SDS011;69682;52.138;5.440;2024-03-07T10:47:53;17.52;;;8.48;;
80183;SDS011;69682;52.138;5.440;2024-03-07T10:53:18;18.42;;;7.32;;
80183;SDS011;69682;52.138;5.440;2024-03-07T10:56:16;15.57;;;8.70;;
80183;SDS011;69682;52.138;5.440;2024-03-07T11:01:59;15.75;;;7.45;;
80183;SDS011;69682;52.138;5.440;2024-03-07T11:04:34;16.52;;;8.30;;
80183;SDS011;69682;52.138;5.440;2024-03-07T11:07:04;12.40;;;7.70;;
80183;SDS011;69682;52.138;5.440;2024-03-07T11:09:31;14.65;;;8.40;;
80183;SDS011;69682;52.138;5.440;2024-03-07T11:12:00;12.68;;;7.72;;
80183;SDS011;69682;52.138;5.440;2024-03-07T11:14:30;14.77;;;7.97;;
80183;SDS011;69682;52.138;5.440;2024-03-07T11:16:58;18.58;;;8.25;;
80183;SDS011;69682;52.138;5.440;2024-03-07T11:19:28;21.35;;;9.15;;
80183;SDS011;69682;52.138;5.440;2024-03-07T11:21:58;16.85;;;7.97;;
80183;SDS011;69682;52.138;5.440;2024-03-07T11:24:29;13.88;;;7.20;;
80183;SDS011;69682;52.138;5.440;2024-03-07T11:26:58;16.25;;;8.38;;
80183;SDS011;69682;52.138;5.440;2024-03-07T11:29:48;14.80;;;8.50;;
80183;SDS011;69682;52.138;5.440;2024-03-07T11:32:20;12.82;;;5.22;;
80183;SDS011;69682;52.138;5.440;2024-03-07T11:34:52;17.08;;;8.30;;
80183;SDS011;69682;52.138;5.440;2024-03-07T11:37:36;17.80;;;8.35;;
80183;SDS011;69682;52.138;5.440;2024-03-07T11:40:10;15.52;;;8.27;;
80183;SDS011;69682;52.138;5.440;2024-03-07T11:42:47;14.43;;;8.00;;
80183;SDS011;69682;52.138;5.440;2024-03-07T11:45:15;19.30;;;9.13;;
80183;SDS011;69682;52.138;5.440;2024-03-07T11:47:52;15.18;;;8.63;;
80183;SDS011;69682;52.138;5.440;2024-03-07T11:50:39;16.23;;;8.05;;
80183;SDS011;69682;52.138;5.440;2024-03-07T11:53:08;14.82;;;7.90;;
80183;SDS011;69682;52.138;5.440;2024-03-07T11:55:35;18.25;;;8.48;;
80183;SDS011;69682;52.138;5.440;2024-03-07T11:58:17;17.55;;;8.00;;
80183;SDS011;69682;52.138;5.440;2024-03-07T12:00:51;17.90;;;8.40;;
80183;SDS011;69682;52.138;5.440;2024-03-07T12:03:24;15.85;;;7.70;;
80183;SDS011;69682;52.138;5.440;2024-03-07T12:05:53;18.65;;;8.48;;
80183;SDS011;69682;52.138;5.440;2024-03-07T12:08:20;16.33;;;8.68;;
80183;SDS011;69682;52.138;5.440;2024-03-07T12:10:51;16.55;;;8.82;;
80183;SDS011;69682;52.138;5.440;2024-03-07T12:13:23;18.50;;;9.02;;
80183;SDS011;69682;52.138;5.440;2024-03-07T12:18:18;15.48;;;8.07;;
80183;SDS011;69682;52.138;5.440;2024-03-07T12:20:50;14.52;;;6.97;;
80183;SDS011;69682;52.138;5.440;2024-03-07T12:23:27;16.30;;;7.88;;
80183;SDS011;69682;52.138;5.440;2024-03-07T12:26:00;16.48;;;7.88;;
80183;SDS011;69682;52.138;5.440;2024-03-07T12:28:32;13.07;;;6.93;;
80183;SDS011;69682;52.138;5.440;2024-03-07T12:31:02;14.23;;;7.35;;
80183;SDS011;69682;52.138;5.440;2024-03-07T12:33:30;14.57;;;8.18;;
80183;SDS011;69682;52.138;5.440;2024-03-07T12:36:02;15.57;;;7.30;;
80183;SDS011;69682;52.138;5.440;2024-03-07T12:38:36;16.45;;;8.30;;
80183;SDS011;69682;52.138;5.440;2024-03-07T12:41:05;16.17;;;8.02;;
80183;SDS011;69682;52.138;5.440;2024-03-07T12:43:41;12.55;;;7.22;;
80183;SDS011;69682;52.138;5.440;2024-03-07T12:46:11;14.57;;;7.10;;
80183;SDS011;69682;52.138;5.440;2024-03-07T12:48:43;14.27;;;7.68;;
80183;SDS011;69682;52.138;5.440;2024-03-07T12:51:13;13.50;;;7.35;;
80183;SDS011;69682;52.138;5.440;2024-03-07T12:53:45;14.65;;;7.60;;
80183;SDS011;69682;52.138;5.440;2024-03-07T12:56:13;19.48;;;7.70;;
80183;SDS011;69682;52.138;5.440;2024-03-07T12:58:46;14.30;;;7.78;;
80183;SDS011;69682;52.138;5.440;2024-03-07T13:01:13;13.32;;;7.60;;
80183;SDS011;69682;52.138;5.440;2024-03-07T13:03:40;15.05;;;7.90;;
80183;SDS011;69682;52.138;5.440;2024-03-07T13:06:11;13.45;;;7.30;;
80183;SDS011;69682;52.138;5.440;2024-03-07T13:08:38;14.13;;;7.45;;
80183;SDS011;69682;52.138;5.440;2024-03-07T13:11:07;16.05;;;8.23;;
80183;SDS011;69682;52.138;5.440;2024-03-07T13:13:36;11.48;;;6.40;;
80183;SDS011;69682;52.138;5.440;2024-03-07T13:16:03;13.95;;;7.80;;
80183;SDS011;69682;52.138;5.440;2024-03-07T13:18:31;10.43;;;7.07;;
80183;SDS011;69682;52.138;5.440;2024-03-07T13:21:02;15.52;;;6.80;;
80183;SDS011;69682;52.138;5.440;2024-03-07T13:23:33;14.95;;;8.18;;
80183;SDS011;69682;52.138;5.440;2024-03-07T13:26:01;12.20;;;7.60;;
80183;SDS011;69682;52.138;5.440;2024-03-07T13:28:28;12.82;;;7.72;;
80183;SDS011;69682;52.138;5.440;2024-03-07T13:30:57;13.55;;;7.72;;
80183;SDS011;69682;52.138;5.440;2024-03-07T13:33:24;12.80;;;7.10;;
80183;SDS011;69682;52.138;5.440;2024-03-07T13:35:52;11.50;;;5.75;;
80183;SDS011;69682;52.138;5.440;2024-03-07T13:38:20;13.30;;;7.30;;
80183;SDS011;69682;52.138;5.440;2024-03-07T13:40:46;13.98;;;7.75;;
80183;SDS011;69682;52.138;5.440;2024-03-07T13:43:16;13.65;;;7.93;;
80183;SDS011;69682;52.138;5.440;2024-03-07T13:45:45;14.52;;;6.80;;
80183;SDS011;69682;52.138;5.440;2024-03-07T13:48:14;16.52;;;7.57;;
80183;SDS011;69682;52.138;5.440;2024-03-07T13:50:43;18.17;;;8.10;;
80183;SDS011;69682;52.138;5.440;2024-03-07T13:53:24;13.35;;;8.75;;
80183;SDS011;69682;52.138;5.440;2024-03-07T14:04:01;12.02;;;7.22;;
80183;SDS011;69682;52.138;5.440;2024-03-07T14:31:40;12.55;;;7.07;;
80183;SDS011;69682;52.138;5.440;2024-03-07T14:34:11;9.65;;;6.72;;
80183;SDS011;69682;52.138;5.440;2024-03-07T14:36:45;10.32;;;6.40;;
80183;SDS011;69682;52.138;5.440;2024-03-07T14:39:14;12.50;;;7.05;;
80183;SDS011;69682;52.138;5.440;2024-03-07T14:41:58;12.13;;;7.07;;
80183;SDS011;69682;52.138;5.440;2024-03-07T14:44:27;12.15;;;7.50;;
80183;SDS011;69682;52.138;5.440;2024-03-07T14:46:59;16.38;;;8.43;;
80183;SDS011;69682;52.138;5.440;2024-03-07T14:49:33;16.52;;;7.88;;
80183;SDS011;69682;52.138;5.440;2024-03-07T14:52:00;12.05;;;8.13;;
80183;SDS011;69682;52.138;5.440;2024-03-07T14:54:28;10.95;;;6.53;;
80183;SDS011;69682;52.138;5.440;2024-03-07T14:56:55;13.90;;;7.63;;
80183;SDS011;69682;52.138;5.440;2024-03-07T14:59:22;12.60;;;7.55;;
80183;SDS011;69682;52.138;5.440;2024-03-07T15:01:49;12.23;;;7.45;;
80183;SDS011;69682;52.138;5.440;2024-03-07T15:04:17;12.43;;;6.95;;
80183;SDS011;69682;52.138;5.440;2024-03-07T15:06:44;8.15;;;4.90;;
80183;SDS011;69682;52.138;5.440;2024-03-07T15:09:12;11.77;;;6.72;;
80183;SDS011;69682;52.138;5.440;2024-03-07T15:11:40;13.75;;;8.90;;
80183;SDS011;69682;52.138;5.440;2024-03-07T15:14:08;14.52;;;7.47;;
80183;SDS011;69682;52.138;5.440;2024-03-07T15:16:35;11.60;;;6.45;;
80183;SDS011;69682;52.138;5.440;2024-03-07T15:19:04;13.40;;;7.10;;
80183;SDS011;69682;52.138;5.440;2024-03-07T15:21:31;13.05;;;7.47;;
80183;SDS011;69682;52.138;5.440;2024-03-07T15:23:58;14.38;;;8.23;;
80183;SDS011;69682;52.138;5.440;2024-03-07T15:26:26;15.55;;;7.45;;
80183;SDS011;69682;52.138;5.440;2024-03-07T15:28:54;13.07;;;7.28;;